sensor_id;sensor_type;location;lat;lon;timestamp;temperature;humidity
3156;DHT22;1588;50.892;7.082;2022-09-09T00:01:07;16.90;99.90
3156;DHT22;1588;50.892;7.082;2022-09-09T00:06:17;17.00;99.90
3156;DHT22;1588;50.892;7.082;2022-09-09T00:11:29;17.00;99.90
3156;DHT22;1588;50.892;7.082;2022-09-09T00:16:35;17.00;99.90
3156;DHT22;1588;50.892;7.082;2022-09-09T00:22:00;16.90;99.90
3156;DHT22;1588;50.892;7.082;2022-09-09T00:27:11;16.90;99.90
3156;DHT22;1588;50.892;7.082;2022-09-09T00:32:18;16.80;99.90
3156;DHT22;1588;50.892;7.082;2022-09-09T00:37:22;16.70;99.90
3156;DHT22;1588;50.892;7.082;2022-09-09T00:42:38;16.70;99.90
3156;DHT22;1588;50.892;7.082;2022-09-09T00:47:45;16.70;99.90
3156;DHT22;1588;50.892;7.082;2022-09-09T00:52:54;16.70;99.90
3156;DHT22;1588;50.892;7.082;2022-09-09T00:58:00;16.80;99.90
3156;DHT22;1588;50.892;7.082;2022-09-09T01:03:21;16.80;99.90
3156;DHT22;1588;50.892;7.082;2022-09-09T01:08:42;16.90;99.90
3156;DHT22;1588;50.892;7.082;2022-09-09T01:13:55;16.90;99.90
3156;DHT22;1588;50.892;7.082;2022-09-09T01:19:00;16.90;99.90
3156;DHT22;1588;50.892;7.082;2022-09-09T01:24:24;16.80;99.90
3156;DHT22;1588;50.892;7.082;2022-09-09T01:29:30;16.90;99.90
3156;DHT22;1588;50.892;7.082;2022-09-09T01:34:36;16.80;99.90
3156;DHT22;1588;50.892;7.082;2022-09-09T01:39:43;16.70;99.90
3156;DHT22;1588;50.892;7.082;2022-09-09T01:44:47;16.60;99.90
3156;DHT22;1588;50.892;7.082;2022-09-09T01:49:50;16.60;99.90
3156;DHT22;1588;50.892;7.082;2022-09-09T01:54:59;16.50;99.90
3156;DHT22;1588;50.892;7.082;2022-09-09T02:00:04;16.50;99.90
3156;DHT22;1588;50.892;7.082;2022-09-09T02:05:21;16.50;99.90
3156;DHT22;1588;50.892;7.082;2022-09-09T02:10:31;16.50;99.90
3156;DHT22;1588;50.892;7.082;2022-09-09T02:15:42;16.60;99.90
3156;DHT22;1588;50.892;7.082;2022-09-09T02:20:46;16.50;99.90
3156;DHT22;1588;50.892;7.082;2022-09-09T02:25:52;16.60;99.90
3156;DHT22;1588;50.892;7.082;2022-09-09T02:30:56;16.60;99.90
3156;DHT22;1588;50.892;7.082;2022-09-09T02:35:59;16.60;99.90
3156;DHT22;1588;50.892;7.082;2022-09-09T02:41:04;16.70;99.90
3156;DHT22;1588;50.892;7.082;2022-09-09T02:46:22;16.70;99.90
3156;DHT22;1588;50.892;7.082;2022-09-09T02:51:34;16.70;99.90
3156;DHT22;1588;50.892;7.082;2022-09-09T02:56:40;16.70;99.90
3156;DHT22;1588;50.892;7.082;2022-09-09T03:01:45;16.70;99.90
3156;DHT22;1588;50.892;7.082;2022-09-09T03:06:47;16.70;99.90
3156;DHT22;1588;50.892;7.082;2022-09-09T03:11:50;16.70;99.90
3156;DHT22;1588;50.892;7.082;2022-09-09T03:16:54;16.80;99.90
3156;DHT22;1588;50.892;7.082;2022-09-09T03:21:57;16.80;99.90
3156;DHT22;1588;50.892;7.082;2022-09-09T03:26:59;16.80;99.90
3156;DHT22;1588;50.892;7.082;2022-09-09T03:32:03;16.80;99.90
3156;DHT22;1588;50.892;7.082;2022-09-09T03:37:06;16.80;99.90
3156;DHT22;1588;50.892;7.082;2022-09-09T03:42:08;16.70;99.90
3156;DHT22;1588;50.892;7.082;2022-09-09T03:47:12;16.70;99.90
3156;DHT22;1588;50.892;7.082;2022-09-09T03:52:16;16.70;99.90
3156;DHT22;1588;50.892;7.082;2022-09-09T03:57:19;16.80;99.90
3156;DHT22;1588;50.892;7.082;2022-09-09T04:02:24;16.80;99.90
3156;DHT22;1588;50.892;7.082;2022-09-09T04:07:26;16.80;99.90
3156;DHT22;1588;50.892;7.082;2022-09-09T04:12:29;16.90;99.90
3156;DHT22;1588;50.892;7.082;2022-09-09T04:17:32;16.90;99.90
3156;DHT22;1588;50.892;7.082;2022-09-09T04:22:34;16.90;99.90
3156;DHT22;1588;50.892;7.082;2022-09-09T04:27:36;16.90;99.90
3156;DHT22;1588;50.892;7.082;2022-09-09T04:32:40;16.90;99.90
3156;DHT22;1588;50.892;7.082;2022-09-09T04:37:42;16.90;99.90
3156;DHT22;1588;50.892;7.082;2022-09-09T04:42:46;16.90;99.90
3156;DHT22;1588;50.892;7.082;2022-09-09T04:47:52;16.90;99.90
3156;DHT22;1588;50.892;7.082;2022-09-09T04:52:54;17.00;99.90
3156;DHT22;1588;50.892;7.082;2022-09-09T04:58:03;16.90;99.90
3156;DHT22;1588;50.892;7.082;2022-09-09T05:03:07;16.90;99.90
3156;DHT22;1588;50.892;7.082;2022-09-09T05:08:11;16.90;99.90
3156;DHT22;1588;50.892;7.082;2022-09-09T05:13:13;16.90;99.90
3156;DHT22;1588;50.892;7.082;2022-09-09T05:18:17;16.90;99.90
3156;DHT22;1588;50.892;7.082;2022-09-09T05:23:19;16.90;99.90
3156;DHT22;1588;50.892;7.082;2022-09-09T05:28:34;16.80;99.90
3156;DHT22;1588;50.892;7.082;2022-09-09T05:33:38;16.90;99.90
3156;DHT22;1588;50.892;7.082;2022-09-09T05:38:42;16.90;99.90
3156;DHT22;1588;50.892;7.082;2022-09-09T05:43:44;16.90;99.90
3156;DHT22;1588;50.892;7.082;2022-09-09T05:48:50;17.00;99.90
3156;DHT22;1588;50.892;7.082;2022-09-09T05:53:53;16.90;99.90
3156;DHT22;1588;50.892;7.082;2022-09-09T05:58:56;16.90;99.90
3156;DHT22;1588;50.892;7.082;2022-09-09T06:04:02;17.00;99.90
3156;DHT22;1588;50.892;7.082;2022-09-09T06:09:06;17.00;99.90
3156;DHT22;1588;50.892;7.082;2022-09-09T06:14:10;17.10;99.90
3156;DHT22;1588;50.892;7.082;2022-09-09T06:19:14;17.20;99.90
3156;DHT22;1588;50.892;7.082;2022-09-09T06:24:16;17.30;99.90
3156;DHT22;1588;50.892;7.082;2022-09-09T06:29:20;17.40;99.90
3156;DHT22;1588;50.892;7.082;2022-09-09T06:34:23;17.50;99.90
3156;DHT22;1588;50.892;7.082;2022-09-09T06:39:26;17.50;99.90
3156;DHT22;1588;50.892;7.082;2022-09-09T06:44:28;17.60;99.90
3156;DHT22;1588;50.892;7.082;2022-09-09T06:49:45;17.80;99.90
3156;DHT22;1588;50.892;7.082;2022-09-09T06:54:48;17.80;99.90
3156;DHT22;1588;50.892;7.082;2022-09-09T06:59:50;17.80;99.90
3156;DHT22;1588;50.892;7.082;2022-09-09T07:04:54;17.80;99.90
3156;DHT22;1588;50.892;7.082;2022-09-09T07:09:58;18.70;99.90
3156;DHT22;1588;50.892;7.082;2022-09-09T07:15:00;20.40;99.90
3156;DHT22;1588;50.892;7.082;2022-09-09T07:20:05;21.40;99.90
3156;DHT22;1588;50.892;7.082;2022-09-09T07:25:09;21.60;99.90
3156;DHT22;1588;50.892;7.082;2022-09-09T07:30:11;22.50;99.90
3156;DHT22;1588;50.892;7.082;2022-09-09T07:35:15;23.80;99.90
3156;DHT22;1588;50.892;7.082;2022-09-09T07:40:17;24.80;99.90
3156;DHT22;1588;50.892;7.082;2022-09-09T07:45:22;25.60;99.90
3156;DHT22;1588;50.892;7.082;2022-09-09T07:50:26;25.60;99.90
3156;DHT22;1588;50.892;7.082;2022-09-09T07:55:28;24.70;99.90
3156;DHT22;1588;50.892;7.082;2022-09-09T08:00:31;22.80;99.90
3156;DHT22;1588;50.892;7.082;2022-09-09T08:05:35;21.40;99.90
3156;DHT22;1588;50.892;7.082;2022-09-09T08:10:40;22.00;99.90
3156;DHT22;1588;50.892;7.082;2022-09-09T08:15:42;21.40;99.90
3156;DHT22;1588;50.892;7.082;2022-09-09T08:20:46;20.90;99.90
3156;DHT22;1588;50.892;7.082;2022-09-09T08:25:48;20.80;99.90
3156;DHT22;1588;50.892;7.082;2022-09-09T08:30:53;20.70;99.90
3156;DHT22;1588;50.892;7.082;2022-09-09T08:35:57;20.50;99.90
3156;DHT22;1588;50.892;7.082;2022-09-09T08:46:40;20.20;99.90
3156;DHT22;1588;50.892;7.082;2022-09-09T08:51:48;21.10;99.90
3156;DHT22;1588;50.892;7.082;2022-09-09T08:56:51;21.00;99.90
3156;DHT22;1588;50.892;7.082;2022-09-09T09:02:05;20.60;99.90
3156;DHT22;1588;50.892;7.082;2022-09-09T09:07:26;20.30;99.90
3156;DHT22;1588;50.892;7.082;2022-09-09T09:12:37;20.50;99.90
3156;DHT22;1588;50.892;7.082;2022-09-09T09:17:40;20.90;99.90
3156;DHT22;1588;50.892;7.082;2022-09-09T09:22:49;21.40;99.90
3156;DHT22;1588;50.892;7.082;2022-09-09T09:27:57;21.70;99.90
3156;DHT22;1588;50.892;7.082;2022-09-09T09:33:04;21.30;99.90
3156;DHT22;1588;50.892;7.082;2022-09-09T09:38:16;20.80;99.90
3156;DHT22;1588;50.892;7.082;2022-09-09T09:43:22;20.30;99.90
3156;DHT22;1588;50.892;7.082;2022-09-09T09:48:27;20.10;99.90
3156;DHT22;1588;50.892;7.082;2022-09-09T09:53:32;20.30;99.90
3156;DHT22;1588;50.892;7.082;2022-09-09T09:58:47;20.30;99.90
3156;DHT22;1588;50.892;7.082;2022-09-09T10:03:52;20.30;99.90
3156;DHT22;1588;50.892;7.082;2022-09-09T10:08:56;20.70;99.90
3156;DHT22;1588;50.892;7.082;2022-09-09T10:14:05;21.00;99.90
3156;DHT22;1588;50.892;7.082;2022-09-09T10:19:14;20.90;99.90
3156;DHT22;1588;50.892;7.082;2022-09-09T10:24:32;21.20;99.90
3156;DHT22;1588;50.892;7.082;2022-09-09T10:29:50;21.00;99.90
3156;DHT22;1588;50.892;7.082;2022-09-09T10:34:58;20.90;99.90
3156;DHT22;1588;50.892;7.082;2022-09-09T10:40:20;20.90;99.90
3156;DHT22;1588;50.892;7.082;2022-09-09T10:45:29;20.90;99.90
3156;DHT22;1588;50.892;7.082;2022-09-09T10:50:54;21.00;99.90
3156;DHT22;1588;50.892;7.082;2022-09-09T10:56:03;21.10;99.90
3156;DHT22;1588;50.892;7.082;2022-09-09T11:01:14;21.20;99.90
3156;DHT22;1588;50.892;7.082;2022-09-09T11:06:19;21.20;99.90
3156;DHT22;1588;50.892;7.082;2022-09-09T11:11:29;21.70;99.90
3156;DHT22;1588;50.892;7.082;2022-09-09T11:16:38;21.80;99.90
3156;DHT22;1588;50.892;7.082;2022-09-09T11:21:45;22.70;99.90
3156;DHT22;1588;50.892;7.082;2022-09-09T11:26:51;22.90;99.90
3156;DHT22;1588;50.892;7.082;2022-09-09T11:32:04;22.40;99.90
3156;DHT22;1588;50.892;7.082;2022-09-09T11:37:35;21.60;99.90
3156;DHT22;1588;50.892;7.082;2022-09-09T11:42:45;21.30;99.90
3156;DHT22;1588;50.892;7.082;2022-09-09T11:47:53;21.30;99.90
3156;DHT22;1588;50.892;7.082;2022-09-09T11:53:18;21.40;99.90
3156;DHT22;1588;50.892;7.082;2022-09-09T11:58:24;21.60;99.90
3156;DHT22;1588;50.892;7.082;2022-09-09T12:03:35;21.90;99.90
3156;DHT22;1588;50.892;7.082;2022-09-09T12:08:43;22.10;99.90
3156;DHT22;1588;50.892;7.082;2022-09-09T12:13:54;22.20;99.90
3156;DHT22;1588;50.892;7.082;2022-09-09T12:19:04;22.10;99.90
3156;DHT22;1588;50.892;7.082;2022-09-09T12:24:08;21.70;99.90
3156;DHT22;1588;50.892;7.082;2022-09-09T12:29:24;21.60;99.90
3156;DHT22;1588;50.892;7.082;2022-09-09T12:34:36;21.60;99.90
3156;DHT22;1588;50.892;7.082;2022-09-09T12:39:43;21.50;99.90
3156;DHT22;1588;50.892;7.082;2022-09-09T12:44:56;21.50;99.90
3156;DHT22;1588;50.892;7.082;2022-09-09T12:49:59;21.40;99.90
3156;DHT22;1588;50.892;7.082;2022-09-09T12:55:04;21.30;99.90
3156;DHT22;1588;50.892;7.082;2022-09-09T13:00:14;21.30;99.90
3156;DHT22;1588;50.892;7.082;2022-09-09T13:05:20;21.40;99.90
3156;DHT22;1588;50.892;7.082;2022-09-09T13:10:26;21.60;99.90
3156;DHT22;1588;50.892;7.082;2022-09-09T13:15:31;21.70;99.90
3156;DHT22;1588;50.892;7.082;2022-09-09T13:20:33;21.40;99.90
3156;DHT22;1588;50.892;7.082;2022-09-09T13:25:36;21.30;99.90
3156;DHT22;1588;50.892;7.082;2022-09-09T13:30:40;21.20;99.90
3156;DHT22;1588;50.892;7.082;2022-09-09T13:35:48;21.40;99.90
3156;DHT22;1588;50.892;7.082;2022-09-09T13:40:56;21.70;99.90
3156;DHT22;1588;50.892;7.082;2022-09-09T13:46:03;22.40;99.90
3156;DHT22;1588;50.892;7.082;2022-09-09T13:51:25;22.10;99.90
3156;DHT22;1588;50.892;7.082;2022-09-09T13:56:28;21.70;99.90
3156;DHT22;1588;50.892;7.082;2022-09-09T14:01:31;21.80;99.90
3156;DHT22;1588;50.892;7.082;2022-09-09T14:06:36;22.10;99.90
3156;DHT22;1588;50.892;7.082;2022-09-09T14:11:39;22.00;99.90
3156;DHT22;1588;50.892;7.082;2022-09-09T14:16:43;21.90;99.90
3156;DHT22;1588;50.892;7.082;2022-09-09T14:21:46;21.50;99.90
3156;DHT22;1588;50.892;7.082;2022-09-09T14:26:48;21.90;99.90
3156;DHT22;1588;50.892;7.082;2022-09-09T14:31:51;22.10;99.90
3156;DHT22;1588;50.892;7.082;2022-09-09T14:36:54;22.10;99.90
3156;DHT22;1588;50.892;7.082;2022-09-09T14:41:56;22.00;99.90
3156;DHT22;1588;50.892;7.082;2022-09-09T14:47:00;22.50;99.90
3156;DHT22;1588;50.892;7.082;2022-09-09T14:52:03;21.90;99.90
3156;DHT22;1588;50.892;7.082;2022-09-09T14:57:06;21.60;99.90
3156;DHT22;1588;50.892;7.082;2022-09-09T15:02:10;21.20;99.90
3156;DHT22;1588;50.892;7.082;2022-09-09T15:07:14;20.80;99.90
3156;DHT22;1588;50.892;7.082;2022-09-09T15:12:17;20.10;99.90
3156;DHT22;1588;50.892;7.082;2022-09-09T15:17:21;19.50;99.90
3156;DHT22;1588;50.892;7.082;2022-09-09T15:22:25;19.30;99.90
3156;DHT22;1588;50.892;7.082;2022-09-09T15:27:28;19.20;99.90
3156;DHT22;1588;50.892;7.082;2022-09-09T15:32:33;19.10;99.90
3156;DHT22;1588;50.892;7.082;2022-09-09T15:37:35;19.30;99.90
3156;DHT22;1588;50.892;7.082;2022-09-09T15:42:38;19.00;99.90
3156;DHT22;1588;50.892;7.082;2022-09-09T15:47:41;18.80;99.90
3156;DHT22;1588;50.892;7.082;2022-09-09T15:52:54;18.50;99.90
3156;DHT22;1588;50.892;7.082;2022-09-09T15:57:56;18.00;99.90
3156;DHT22;1588;50.892;7.082;2022-09-09T16:03:00;17.40;99.90
3156;DHT22;1588;50.892;7.082;2022-09-09T16:08:02;17.00;99.90
3156;DHT22;1588;50.892;7.082;2022-09-09T16:13:04;16.90;99.90
3156;DHT22;1588;50.892;7.082;2022-09-09T16:18:08;16.90;99.90
3156;DHT22;1588;50.892;7.082;2022-09-09T16:23:10;16.90;99.90
3156;DHT22;1588;50.892;7.082;2022-09-09T16:28:12;16.70;99.90
3156;DHT22;1588;50.892;7.082;2022-09-09T16:33:16;16.60;99.90
3156;DHT22;1588;50.892;7.082;2022-09-09T16:38:18;16.60;99.90
3156;DHT22;1588;50.892;7.082;2022-09-09T16:43:40;16.50;99.90
3156;DHT22;1588;50.892;7.082;2022-09-09T16:48:44;16.50;99.90
3156;DHT22;1588;50.892;7.082;2022-09-09T16:53:47;16.70;99.90
3156;DHT22;1588;50.892;7.082;2022-09-09T16:58:50;16.70;99.90
3156;DHT22;1588;50.892;7.082;2022-09-09T17:03:55;16.80;99.90
3156;DHT22;1588;50.892;7.082;2022-09-09T17:08:59;17.10;99.90
3156;DHT22;1588;50.892;7.082;2022-09-09T17:14:21;17.10;99.90
3156;DHT22;1588;50.892;7.082;2022-09-09T17:19:27;17.30;99.90
3156;DHT22;1588;50.892;7.082;2022-09-09T17:24:29;17.30;99.90
3156;DHT22;1588;50.892;7.082;2022-09-09T17:29:31;17.30;99.90
3156;DHT22;1588;50.892;7.082;2022-09-09T17:34:38;17.20;99.90
3156;DHT22;1588;50.892;7.082;2022-09-09T17:39:40;17.00;99.90
3156;DHT22;1588;50.892;7.082;2022-09-09T17:44:42;17.00;99.90
3156;DHT22;1588;50.892;7.082;2022-09-09T17:49:46;17.00;99.90
3156;DHT22;1588;50.892;7.082;2022-09-09T17:54:48;16.90;99.90
3156;DHT22;1588;50.892;7.082;2022-09-09T17:59:51;16.80;99.90
3156;DHT22;1588;50.892;7.082;2022-09-09T18:04:54;16.80;99.90
3156;DHT22;1588;50.892;7.082;2022-09-09T18:09:57;16.70;99.90
3156;DHT22;1588;50.892;7.082;2022-09-09T18:14:59;16.80;99.90
3156;DHT22;1588;50.892;7.082;2022-09-09T18:20:03;16.80;99.90
3156;DHT22;1588;50.892;7.082;2022-09-09T18:25:06;16.80;99.90
3156;DHT22;1588;50.892;7.082;2022-09-09T18:30:18;16.80;99.90
3156;DHT22;1588;50.892;7.082;2022-09-09T18:35:22;16.80;99.90
3156;DHT22;1588;50.892;7.082;2022-09-09T18:40:24;16.80;99.90
3156;DHT22;1588;50.892;7.082;2022-09-09T18:45:27;16.80;99.90
3156;DHT22;1588;50.892;7.082;2022-09-09T18:50:30;16.80;99.90
3156;DHT22;1588;50.892;7.082;2022-09-09T18:55:34;16.70;99.90
3156;DHT22;1588;50.892;7.082;2022-09-09T19:00:56;16.60;99.90
3156;DHT22;1588;50.892;7.082;2022-09-09T19:06:02;16.50;99.90
3156;DHT22;1588;50.892;7.082;2022-09-09T19:11:05;16.40;99.90
3156;DHT22;1588;50.892;7.082;2022-09-09T19:16:10;16.30;99.90
3156;DHT22;1588;50.892;7.082;2022-09-09T19:21:16;16.30;99.90
3156;DHT22;1588;50.892;7.082;2022-09-09T19:26:18;16.20;99.90
3156;DHT22;1588;50.892;7.082;2022-09-09T19:31:21;16.10;99.90
3156;DHT22;1588;50.892;7.082;2022-09-09T19:36:25;16.00;99.90
3156;DHT22;1588;50.892;7.082;2022-09-09T19:41:29;16.00;99.90
3156;DHT22;1588;50.892;7.082;2022-09-09T19:46:35;15.90;99.90
3156;DHT22;1588;50.892;7.082;2022-09-09T19:51:39;15.80;99.90
3156;DHT22;1588;50.892;7.082;2022-09-09T19:56:41;15.80;99.90
3156;DHT22;1588;50.892;7.082;2022-09-09T20:01:44;15.70;99.90
3156;DHT22;1588;50.892;7.082;2022-09-09T20:06:47;15.70;99.90
3156;DHT22;1588;50.892;7.082;2022-09-09T20:12:06;15.70;99.90
3156;DHT22;1588;50.892;7.082;2022-09-09T20:17:08;15.70;99.90
3156;DHT22;1588;50.892;7.082;2022-09-09T20:22:12;15.70;99.90
3156;DHT22;1588;50.892;7.082;2022-09-09T20:27:14;15.80;99.90
3156;DHT22;1588;50.892;7.082;2022-09-09T20:32:16;15.90;99.90
3156;DHT22;1588;50.892;7.082;2022-09-09T20:37:20;15.90;99.90
3156;DHT22;1588;50.892;7.082;2022-09-09T20:42:23;15.80;99.90
3156;DHT22;1588;50.892;7.082;2022-09-09T20:47:44;15.80;99.90
3156;DHT22;1588;50.892;7.082;2022-09-09T20:53:08;15.90;99.90
3156;DHT22;1588;50.892;7.082;2022-09-09T20:58:11;16.00;99.90
3156;DHT22;1588;50.892;7.082;2022-09-09T21:03:14;16.10;99.90
3156;DHT22;1588;50.892;7.082;2022-09-09T21:08:19;16.00;99.90
3156;DHT22;1588;50.892;7.082;2022-09-09T21:13:23;16.00;99.90
3156;DHT22;1588;50.892;7.082;2022-09-09T21:18:26;16.00;99.90
3156;DHT22;1588;50.892;7.082;2022-09-09T21:23:30;16.00;99.90
3156;DHT22;1588;50.892;7.082;2022-09-09T21:28:32;16.00;99.90
3156;DHT22;1588;50.892;7.082;2022-09-09T21:33:35;15.80;99.90
3156;DHT22;1588;50.892;7.082;2022-09-09T21:38:40;15.70;99.90
3156;DHT22;1588;50.892;7.082;2022-09-09T21:43:44;15.70;99.90
3156;DHT22;1588;50.892;7.082;2022-09-09T21:48:47;15.70;99.90
3156;DHT22;1588;50.892;7.082;2022-09-09T21:53:53;15.60;99.90
3156;DHT22;1588;50.892;7.082;2022-09-09T21:58:57;15.50;99.90
3156;DHT22;1588;50.892;7.082;2022-09-09T22:04:02;15.60;99.90
3156;DHT22;1588;50.892;7.082;2022-09-09T22:09:06;15.60;99.90
3156;DHT22;1588;50.892;7.082;2022-09-09T22:14:28;15.60;99.90
3156;DHT22;1588;50.892;7.082;2022-09-09T22:19:30;15.50;99.90
3156;DHT22;1588;50.892;7.082;2022-09-09T22:24:34;15.50;99.90
3156;DHT22;1588;50.892;7.082;2022-09-09T22:29:38;15.50;99.90
3156;DHT22;1588;50.892;7.082;2022-09-09T22:34:40;15.50;99.90
3156;DHT22;1588;50.892;7.082;2022-09-09T22:39:44;15.40;99.90
3156;DHT22;1588;50.892;7.082;2022-09-09T22:44:46;15.40;99.90
3156;DHT22;1588;50.892;7.082;2022-09-09T22:49:48;15.30;99.90
3156;DHT22;1588;50.892;7.082;2022-09-09T22:54:53;15.20;99.90
3156;DHT22;1588;50.892;7.082;2022-09-09T22:59:56;15.10;99.90
3156;DHT22;1588;50.892;7.082;2022-09-09T23:04:59;15.10;99.90
3156;DHT22;1588;50.892;7.082;2022-09-09T23:10:04;15.10;99.90
3156;DHT22;1588;50.892;7.082;2022-09-09T23:15:07;15.00;99.90
3156;DHT22;1588;50.892;7.082;2022-09-09T23:20:10;15.10;99.90
3156;DHT22;1588;50.892;7.082;2022-09-09T23:25:14;15.00;99.90
3156;DHT22;1588;50.892;7.082;2022-09-09T23:30:16;15.10;99.90
3156;DHT22;1588;50.892;7.082;2022-09-09T23:35:18;15.10;99.90
3156;DHT22;1588;50.892;7.082;2022-09-09T23:40:22;15.10;99.90
3156;DHT22;1588;50.892;7.082;2022-09-09T23:45:25;15.00;99.90
3156;DHT22;1588;50.892;7.082;2022-09-09T23:50:28;15.00;99.90
3156;DHT22;1588;50.892;7.082;2022-09-09T23:55:32;15.10;99.90
